sensor_id;sensor_type;location;lat;lon;timestamp;temperature;humidity
67529;DHT22;54366;51.980;5.856;2023-03-14T00:02:32;12.80;76.90
67529;DHT22;54366;51.980;5.856;2023-03-14T00:05:05;12.80;76.90
67529;DHT22;54366;51.980;5.856;2023-03-14T00:07:39;12.80;77.00
67529;DHT22;54366;51.980;5.856;2023-03-14T00:10:13;12.70;76.90
67529;DHT22;54366;51.980;5.856;2023-03-14T00:12:40;12.70;77.00
67529;DHT22;54366;51.980;5.856;2023-03-14T00:15:13;12.70;76.90
67529;DHT22;54366;51.980;5.856;2023-03-14T00:17:46;12.70;77.00
67529;DHT22;54366;51.980;5.856;2023-03-14T00:20:19;12.70;77.50
67529;DHT22;54366;51.980;5.856;2023-03-14T00:22:52;12.70;78.30
67529;DHT22;54366;51.980;5.856;2023-03-14T00:25:25;12.60;79.30
67529;DHT22;54366;51.980;5.856;2023-03-14T00:27:58;12.50;80.10
67529;DHT22;54366;51.980;5.856;2023-03-14T00:30:31;12.50;79.90
67529;DHT22;54366;51.980;5.856;2023-03-14T00:33:04;12.40;80.70
67529;DHT22;54366;51.980;5.856;2023-03-14T00:35:37;12.40;80.60
67529;DHT22;54366;51.980;5.856;2023-03-14T00:38:10;12.30;80.40
67529;DHT22;54366;51.980;5.856;2023-03-14T00:40:39;12.30;80.30
67529;DHT22;54366;51.980;5.856;2023-03-14T00:43:12;12.20;79.90
67529;DHT22;54366;51.980;5.856;2023-03-14T00:45:45;12.20;79.70
67529;DHT22;54366;51.980;5.856;2023-03-14T00:48:19;12.10;79.50
67529;DHT22;54366;51.980;5.856;2023-03-14T00:50:52;12.10;79.40
67529;DHT22;54366;51.980;5.856;2023-03-14T00:53:25;12.00;79.40
67529;DHT22;54366;51.980;5.856;2023-03-14T00:56:08;12.00;79.30
67529;DHT22;54366;51.980;5.856;2023-03-14T00:58:41;11.90;79.30
67529;DHT22;54366;51.980;5.856;2023-03-14T01:01:10;11.90;79.20
67529;DHT22;54366;51.980;5.856;2023-03-14T01:03:43;11.80;79.10
67529;DHT22;54366;51.980;5.856;2023-03-14T01:06:19;11.90;79.10
67529;DHT22;54366;51.980;5.856;2023-03-14T01:08:53;11.90;79.20
67529;DHT22;54366;51.980;5.856;2023-03-14T01:11:29;11.80;79.00
67529;DHT22;54366;51.980;5.856;2023-03-14T01:14:03;11.80;79.20
67529;DHT22;54366;51.980;5.856;2023-03-14T01:16:36;11.80;79.20
67529;DHT22;54366;51.980;5.856;2023-03-14T01:19:09;11.80;79.20
67529;DHT22;54366;51.980;5.856;2023-03-14T01:21:42;11.80;79.20
67529;DHT22;54366;51.980;5.856;2023-03-14T01:24:15;11.80;79.30
67529;DHT22;54366;51.980;5.856;2023-03-14T01:26:48;11.80;79.20
67529;DHT22;54366;51.980;5.856;2023-03-14T01:29:23;11.80;79.00
67529;DHT22;54366;51.980;5.856;2023-03-14T01:31:56;11.70;78.90
67529;DHT22;54366;51.980;5.856;2023-03-14T01:34:29;11.80;78.90
67529;DHT22;54366;51.980;5.856;2023-03-14T01:37:02;11.70;78.60
67529;DHT22;54366;51.980;5.856;2023-03-14T01:39:38;11.70;78.60
67529;DHT22;54366;51.980;5.856;2023-03-14T01:42:11;11.70;78.50
67529;DHT22;54366;51.980;5.856;2023-03-14T01:48:02;11.70;78.40
67529;DHT22;54366;51.980;5.856;2023-03-14T01:50:35;11.70;78.80
67529;DHT22;54366;51.980;5.856;2023-03-14T01:53:14;11.60;79.10
67529;DHT22;54366;51.980;5.856;2023-03-14T01:55:50;11.60;79.70
67529;DHT22;54366;51.980;5.856;2023-03-14T01:58:27;11.50;79.90
67529;DHT22;54366;51.980;5.856;2023-03-14T02:01:02;11.50;80.60
67529;DHT22;54366;51.980;5.856;2023-03-14T02:03:38;11.50;80.70
67529;DHT22;54366;51.980;5.856;2023-03-14T02:06:17;11.50;80.80
67529;DHT22;54366;51.980;5.856;2023-03-14T02:08:53;11.40;81.10
67529;DHT22;54366;51.980;5.856;2023-03-14T02:11:29;11.40;81.70
67529;DHT22;54366;51.980;5.856;2023-03-14T02:14:17;11.30;82.40
67529;DHT22;54366;51.980;5.856;2023-03-14T02:17:12;11.30;82.40
67529;DHT22;54366;51.980;5.856;2023-03-14T02:22:59;11.20;82.90
67529;DHT22;54366;51.980;5.856;2023-03-14T02:25:48;11.10;83.20
67529;DHT22;54366;51.980;5.856;2023-03-14T02:28:22;11.10;83.20
67529;DHT22;54366;51.980;5.856;2023-03-14T02:30:58;11.00;83.10
67529;DHT22;54366;51.980;5.856;2023-03-14T02:33:34;11.00;83.10
67529;DHT22;54366;51.980;5.856;2023-03-14T02:36:11;11.00;83.70
67529;DHT22;54366;51.980;5.856;2023-03-14T02:39:07;11.00;83.40
67529;DHT22;54366;51.980;5.856;2023-03-14T02:41:43;11.00;83.60
67529;DHT22;54366;51.980;5.856;2023-03-14T02:44:18;11.00;83.50
67529;DHT22;54366;51.980;5.856;2023-03-14T02:46:51;10.90;83.30
67529;DHT22;54366;51.980;5.856;2023-03-14T02:49:26;11.00;83.40
67529;DHT22;54366;51.980;5.856;2023-03-14T02:51:53;10.90;83.30
67529;DHT22;54366;51.980;5.856;2023-03-14T02:54:32;11.00;83.30
67529;DHT22;54366;51.980;5.856;2023-03-14T02:57:12;11.00;83.10
67529;DHT22;54366;51.980;5.856;2023-03-14T02:59:45;11.00;83.00
67529;DHT22;54366;51.980;5.856;2023-03-14T03:02:19;10.90;82.80
67529;DHT22;54366;51.980;5.856;2023-03-14T03:04:52;11.00;83.00
67529;DHT22;54366;51.980;5.856;2023-03-14T03:07:25;10.90;83.10
67529;DHT22;54366;51.980;5.856;2023-03-14T03:09:54;10.90;83.10
67529;DHT22;54366;51.980;5.856;2023-03-14T03:12:27;10.90;83.20
67529;DHT22;54366;51.980;5.856;2023-03-14T03:15:00;10.80;83.40
67529;DHT22;54366;51.980;5.856;2023-03-14T03:17:35;10.80;83.40
67529;DHT22;54366;51.980;5.856;2023-03-14T03:20:09;10.80;83.30
67529;DHT22;54366;51.980;5.856;2023-03-14T03:22:36;10.80;83.20
67529;DHT22;54366;51.980;5.856;2023-03-14T03:25:10;10.80;83.20
67529;DHT22;54366;51.980;5.856;2023-03-14T03:27:45;10.80;83.20
67529;DHT22;54366;51.980;5.856;2023-03-14T03:30:19;10.80;83.20
67529;DHT22;54366;51.980;5.856;2023-03-14T03:32:52;10.70;83.10
67529;DHT22;54366;51.980;5.856;2023-03-14T03:35:25;10.70;83.10
67529;DHT22;54366;51.980;5.856;2023-03-14T03:37:58;10.70;83.10
67529;DHT22;54366;51.980;5.856;2023-03-14T03:40:31;10.70;83.10
67529;DHT22;54366;51.980;5.856;2023-03-14T03:43:05;10.70;83.00
67529;DHT22;54366;51.980;5.856;2023-03-14T03:45:41;10.70;83.00
67529;DHT22;54366;51.980;5.856;2023-03-14T03:48:14;10.70;83.00
67529;DHT22;54366;51.980;5.856;2023-03-14T03:50:47;10.70;83.10
67529;DHT22;54366;51.980;5.856;2023-03-14T03:53:23;10.70;83.00
67529;DHT22;54366;51.980;5.856;2023-03-14T03:55:56;10.70;83.00
67529;DHT22;54366;51.980;5.856;2023-03-14T03:58:36;10.80;83.00
67529;DHT22;54366;51.980;5.856;2023-03-14T04:01:11;10.80;83.00
67529;DHT22;54366;51.980;5.856;2023-03-14T04:03:47;10.80;83.00
67529;DHT22;54366;51.980;5.856;2023-03-14T04:06:20;10.80;82.90
67529;DHT22;54366;51.980;5.856;2023-03-14T04:08:55;10.80;82.70
67529;DHT22;54366;51.980;5.856;2023-03-14T04:11:45;10.80;82.70
67529;DHT22;54366;51.980;5.856;2023-03-14T04:14:36;10.80;82.60
67529;DHT22;54366;51.980;5.856;2023-03-14T04:17:17;10.80;82.30
67529;DHT22;54366;51.980;5.856;2023-03-14T04:19:50;10.80;82.40
67529;DHT22;54366;51.980;5.856;2023-03-14T04:22:34;10.80;82.40
67529;DHT22;54366;51.980;5.856;2023-03-14T04:25:07;10.80;82.30
67529;DHT22;54366;51.980;5.856;2023-03-14T04:27:45;10.80;82.20
67529;DHT22;54366;51.980;5.856;2023-03-14T04:30:23;10.80;82.10
67529;DHT22;54366;51.980;5.856;2023-03-14T04:32:59;10.80;82.00
67529;DHT22;54366;51.980;5.856;2023-03-14T04:35:36;10.90;82.00
67529;DHT22;54366;51.980;5.856;2023-03-14T04:38:14;10.80;81.90
67529;DHT22;54366;51.980;5.856;2023-03-14T04:40:48;10.80;81.80
67529;DHT22;54366;51.980;5.856;2023-03-14T04:43:25;10.90;81.70
67529;DHT22;54366;51.980;5.856;2023-03-14T04:46:03;10.90;81.70
67529;DHT22;54366;51.980;5.856;2023-03-14T04:48:36;10.90;81.70
67529;DHT22;54366;51.980;5.856;2023-03-14T04:51:10;10.90;81.60
67529;DHT22;54366;51.980;5.856;2023-03-14T04:53:43;10.90;81.50
67529;DHT22;54366;51.980;5.856;2023-03-14T04:56:22;10.90;81.30
67529;DHT22;54366;51.980;5.856;2023-03-14T04:58:55;10.90;81.40
67529;DHT22;54366;51.980;5.856;2023-03-14T05:01:29;10.90;81.40
67529;DHT22;54366;51.980;5.856;2023-03-14T05:04:29;10.90;81.30
67529;DHT22;54366;51.980;5.856;2023-03-14T05:07:23;10.90;81.40
67529;DHT22;54366;51.980;5.856;2023-03-14T05:10:14;10.90;81.50
67529;DHT22;54366;51.980;5.856;2023-03-14T05:13:05;10.90;81.80
67529;DHT22;54366;51.980;5.856;2023-03-14T05:16:08;10.90;81.80
67529;DHT22;54366;51.980;5.856;2023-03-14T05:19:08;10.90;81.70
67529;DHT22;54366;51.980;5.856;2023-03-14T05:22:10;10.90;81.50
67529;DHT22;54366;51.980;5.856;2023-03-14T05:25:08;10.90;81.50
67529;DHT22;54366;51.980;5.856;2023-03-14T05:27:55;10.80;81.50
67529;DHT22;54366;51.980;5.856;2023-03-14T05:30:38;10.90;81.60
67529;DHT22;54366;51.980;5.856;2023-03-14T05:33:37;10.90;81.70
67529;DHT22;54366;51.980;5.856;2023-03-14T05:36:24;10.90;81.80
67529;DHT22;54366;51.980;5.856;2023-03-14T05:39:14;10.90;81.90
67529;DHT22;54366;51.980;5.856;2023-03-14T05:42:09;10.80;82.10
67529;DHT22;54366;51.980;5.856;2023-03-14T05:44:47;10.80;82.20
67529;DHT22;54366;51.980;5.856;2023-03-14T05:47:38;10.80;82.30
67529;DHT22;54366;51.980;5.856;2023-03-14T05:50:29;10.80;82.50
67529;DHT22;54366;51.980;5.856;2023-03-14T05:53:26;10.80;82.60
67529;DHT22;54366;51.980;5.856;2023-03-14T05:56:23;10.80;83.00
67529;DHT22;54366;51.980;5.856;2023-03-14T05:59:12;10.80;83.00
67529;DHT22;54366;51.980;5.856;2023-03-14T06:02:09;10.70;83.10
67529;DHT22;54366;51.980;5.856;2023-03-14T06:04:57;10.70;83.20
67529;DHT22;54366;51.980;5.856;2023-03-14T06:07:30;10.70;83.30
67529;DHT22;54366;51.980;5.856;2023-03-14T06:10:05;10.70;83.50
67529;DHT22;54366;51.980;5.856;2023-03-14T06:12:39;10.70;83.50
67529;DHT22;54366;51.980;5.856;2023-03-14T06:15:12;10.70;83.50
67529;DHT22;54366;51.980;5.856;2023-03-14T06:17:40;10.70;83.70
67529;DHT22;54366;51.980;5.856;2023-03-14T06:20:13;10.70;84.00
67529;DHT22;54366;51.980;5.856;2023-03-14T06:22:46;10.70;84.00
67529;DHT22;54366;51.980;5.856;2023-03-14T06:25:19;10.70;84.30
67529;DHT22;54366;51.980;5.856;2023-03-14T06:27:52;10.60;84.30
67529;DHT22;54366;51.980;5.856;2023-03-14T06:30:21;10.60;84.40
67529;DHT22;54366;51.980;5.856;2023-03-14T06:32:54;10.60;84.80
67529;DHT22;54366;51.980;5.856;2023-03-14T06:35:22;10.60;85.00
67529;DHT22;54366;51.980;5.856;2023-03-14T06:37:55;10.60;85.20
67529;DHT22;54366;51.980;5.856;2023-03-14T06:40:28;10.60;85.00
67529;DHT22;54366;51.980;5.856;2023-03-14T06:43:12;10.60;85.90
67529;DHT22;54366;51.980;5.856;2023-03-14T06:45:46;10.60;85.60
67529;DHT22;54366;51.980;5.856;2023-03-14T06:48:19;10.60;85.50
67529;DHT22;54366;51.980;5.856;2023-03-14T06:50:53;10.60;85.70
67529;DHT22;54366;51.980;5.856;2023-03-14T06:53:32;10.60;85.70
67529;DHT22;54366;51.980;5.856;2023-03-14T06:56:06;10.60;86.00
67529;DHT22;54366;51.980;5.856;2023-03-14T06:58:46;10.70;86.00
67529;DHT22;54366;51.980;5.856;2023-03-14T07:01:26;10.70;86.30
67529;DHT22;54366;51.980;5.856;2023-03-14T07:04:05;10.70;86.10
67529;DHT22;54366;51.980;5.856;2023-03-14T07:06:43;10.70;86.30
67529;DHT22;54366;51.980;5.856;2023-03-14T07:09:17;10.70;86.60
67529;DHT22;54366;51.980;5.856;2023-03-14T07:11:56;10.80;86.70
67529;DHT22;54366;51.980;5.856;2023-03-14T07:14:30;10.80;86.80
67529;DHT22;54366;51.980;5.856;2023-03-14T07:17:03;10.80;86.70
67529;DHT22;54366;51.980;5.856;2023-03-14T07:19:36;10.80;86.80
67529;DHT22;54366;51.980;5.856;2023-03-14T07:22:10;10.80;86.70
67529;DHT22;54366;51.980;5.856;2023-03-14T07:24:43;10.80;86.70
67529;DHT22;54366;51.980;5.856;2023-03-14T07:27:16;10.90;86.90
67529;DHT22;54366;51.980;5.856;2023-03-14T07:29:49;10.80;86.50
67529;DHT22;54366;51.980;5.856;2023-03-14T07:32:23;10.80;85.70
67529;DHT22;54366;51.980;5.856;2023-03-14T07:34:56;10.70;86.00
67529;DHT22;54366;51.980;5.856;2023-03-14T07:37:30;10.70;85.70
67529;DHT22;54366;51.980;5.856;2023-03-14T07:40:05;10.60;84.90
67529;DHT22;54366;51.980;5.856;2023-03-14T07:42:42;10.60;84.40
67529;DHT22;54366;51.980;5.856;2023-03-14T07:45:23;10.50;82.50
67529;DHT22;54366;51.980;5.856;2023-03-14T07:47:56;10.30;82.80
67529;DHT22;54366;51.980;5.856;2023-03-14T07:50:30;10.10;82.60
67529;DHT22;54366;51.980;5.856;2023-03-14T07:52:56;10.00;83.30
67529;DHT22;54366;51.980;5.856;2023-03-14T07:55:35;9.90;84.00
67529;DHT22;54366;51.980;5.856;2023-03-14T07:58:08;9.90;84.30
67529;DHT22;54366;51.980;5.856;2023-03-14T08:00:34;9.80;84.50
67529;DHT22;54366;51.980;5.856;2023-03-14T08:03:07;9.70;84.80
67529;DHT22;54366;51.980;5.856;2023-03-14T08:05:40;9.70;84.90
67529;DHT22;54366;51.980;5.856;2023-03-14T08:08:14;9.60;84.90
67529;DHT22;54366;51.980;5.856;2023-03-14T08:10:47;9.60;85.00
67529;DHT22;54366;51.980;5.856;2023-03-14T08:13:20;9.50;83.80
67529;DHT22;54366;51.980;5.856;2023-03-14T08:15:54;9.40;84.10
67529;DHT22;54366;51.980;5.856;2023-03-14T08:18:27;9.30;84.70
67529;DHT22;54366;51.980;5.856;2023-03-14T08:21:00;9.30;84.90
67529;DHT22;54366;51.980;5.856;2023-03-14T08:23:33;9.20;84.70
67529;DHT22;54366;51.980;5.856;2023-03-14T08:26:07;9.10;85.00
67529;DHT22;54366;51.980;5.856;2023-03-14T08:28:40;9.10;85.20
67529;DHT22;54366;51.980;5.856;2023-03-14T08:31:13;9.10;85.00
67529;DHT22;54366;51.980;5.856;2023-03-14T08:33:47;9.10;85.40
67529;DHT22;54366;51.980;5.856;2023-03-14T08:36:20;9.10;85.40
67529;DHT22;54366;51.980;5.856;2023-03-14T08:38:46;9.10;85.50
67529;DHT22;54366;51.980;5.856;2023-03-14T08:41:19;9.00;85.40
67529;DHT22;54366;51.980;5.856;2023-03-14T08:43:52;9.00;82.00
67529;DHT22;54366;51.980;5.856;2023-03-14T08:46:25;8.80;82.30
67529;DHT22;54366;51.980;5.856;2023-03-14T08:48:58;8.60;82.70
67529;DHT22;54366;51.980;5.856;2023-03-14T08:51:31;8.50;82.60
67529;DHT22;54366;51.980;5.856;2023-03-14T08:54:04;8.30;83.20
67529;DHT22;54366;51.980;5.856;2023-03-14T08:56:50;8.20;83.60
67529;DHT22;54366;51.980;5.856;2023-03-14T08:59:23;8.00;84.10
67529;DHT22;54366;51.980;5.856;2023-03-14T09:01:56;8.00;84.80
67529;DHT22;54366;51.980;5.856;2023-03-14T09:04:30;8.00;83.60
67529;DHT22;54366;51.980;5.856;2023-03-14T09:06:56;7.90;83.50
67529;DHT22;54366;51.980;5.856;2023-03-14T09:09:30;7.90;84.30
67529;DHT22;54366;51.980;5.856;2023-03-14T09:12:03;7.90;83.90
67529;DHT22;54366;51.980;5.856;2023-03-14T09:14:37;7.80;83.80
67529;DHT22;54366;51.980;5.856;2023-03-14T09:17:10;7.80;84.20
67529;DHT22;54366;51.980;5.856;2023-03-14T09:19:43;7.90;83.10
67529;DHT22;54366;51.980;5.856;2023-03-14T09:22:16;7.80;83.10
67529;DHT22;54366;51.980;5.856;2023-03-14T09:24:49;7.70;82.50
67529;DHT22;54366;51.980;5.856;2023-03-14T09:27:22;7.60;83.00
67529;DHT22;54366;51.980;5.856;2023-03-14T09:29:55;7.70;83.80
67529;DHT22;54366;51.980;5.856;2023-03-14T09:32:29;7.70;82.30
67529;DHT22;54366;51.980;5.856;2023-03-14T09:35:04;7.70;81.20
67529;DHT22;54366;51.980;5.856;2023-03-14T09:37:37;7.70;82.70
67529;DHT22;54366;51.980;5.856;2023-03-14T09:40:15;7.80;82.60
67529;DHT22;54366;51.980;5.856;2023-03-14T09:42:54;7.90;79.70
67529;DHT22;54366;51.980;5.856;2023-03-14T09:45:36;7.80;78.70
67529;DHT22;54366;51.980;5.856;2023-03-14T09:48:30;7.90;79.20
67529;DHT22;54366;51.980;5.856;2023-03-14T09:51:18;7.80;79.30
67529;DHT22;54366;51.980;5.856;2023-03-14T09:53:54;7.80;79.10
67529;DHT22;54366;51.980;5.856;2023-03-14T09:56:30;7.80;78.00
67529;DHT22;54366;51.980;5.856;2023-03-14T09:59:12;7.90;77.10
67529;DHT22;54366;51.980;5.856;2023-03-14T10:01:46;7.90;77.60
67529;DHT22;54366;51.980;5.856;2023-03-14T10:04:22;7.90;77.10
67529;DHT22;54366;51.980;5.856;2023-03-14T10:06:57;7.90;78.30
67529;DHT22;54366;51.980;5.856;2023-03-14T10:09:30;7.90;78.60
67529;DHT22;54366;51.980;5.856;2023-03-14T10:12:03;7.90;77.90
67529;DHT22;54366;51.980;5.856;2023-03-14T10:14:46;7.90;76.90
67529;DHT22;54366;51.980;5.856;2023-03-14T10:17:20;8.00;76.70
67529;DHT22;54366;51.980;5.856;2023-03-14T10:19:59;8.10;75.30
67529;DHT22;54366;51.980;5.856;2023-03-14T10:22:32;8.10;76.00
67529;DHT22;54366;51.980;5.856;2023-03-14T10:25:06;8.10;76.30
67529;DHT22;54366;51.980;5.856;2023-03-14T10:27:56;8.20;75.40
67529;DHT22;54366;51.980;5.856;2023-03-14T10:30:45;8.20;74.50
67529;DHT22;54366;51.980;5.856;2023-03-14T10:33:31;8.30;74.10
67529;DHT22;54366;51.980;5.856;2023-03-14T10:36:43;8.30;73.80
67529;DHT22;54366;51.980;5.856;2023-03-14T10:39:55;8.40;74.00
67529;DHT22;54366;51.980;5.856;2023-03-14T10:42:50;8.40;72.20
67529;DHT22;54366;51.980;5.856;2023-03-14T10:45:44;8.40;73.60
67529;DHT22;54366;51.980;5.856;2023-03-14T10:48:34;8.40;74.30
67529;DHT22;54366;51.980;5.856;2023-03-14T10:51:26;8.50;74.70
67529;DHT22;54366;51.980;5.856;2023-03-14T10:54:14;8.60;72.10
67529;DHT22;54366;51.980;5.856;2023-03-14T10:56:58;8.60;71.70
67529;DHT22;54366;51.980;5.856;2023-03-14T10:59:39;8.60;71.80
67529;DHT22;54366;51.980;5.856;2023-03-14T11:03:20;8.60;72.70
67529;DHT22;54366;51.980;5.856;2023-03-14T11:06:10;8.40;74.60
67529;DHT22;54366;51.980;5.856;2023-03-14T11:15:41;7.90;77.70
67529;DHT22;54366;51.980;5.856;2023-03-14T11:18:47;7.90;78.20
67529;DHT22;54366;51.980;5.856;2023-03-14T11:21:35;8.00;78.20
67529;DHT22;54366;51.980;5.856;2023-03-14T11:28:00;8.10;77.50
67529;DHT22;54366;51.980;5.856;2023-03-14T11:34:29;8.20;74.20
67529;DHT22;54366;51.980;5.856;2023-03-14T11:37:51;8.20;73.00
67529;DHT22;54366;51.980;5.856;2023-03-14T11:40:18;8.20;72.70
67529;DHT22;54366;51.980;5.856;2023-03-14T11:43:17;8.20;71.80
67529;DHT22;54366;51.980;5.856;2023-03-14T11:45:56;8.20;71.80
67529;DHT22;54366;51.980;5.856;2023-03-14T11:51:46;8.40;71.70
67529;DHT22;54366;51.980;5.856;2023-03-14T11:54:56;8.70;72.30
67529;DHT22;54366;51.980;5.856;2023-03-14T11:57:30;8.80;68.50
67529;DHT22;54366;51.980;5.856;2023-03-14T12:00:19;9.00;63.00
67529;DHT22;54366;51.980;5.856;2023-03-14T12:03:24;9.00;63.10
67529;DHT22;54366;51.980;5.856;2023-03-14T12:06:22;9.10;61.90
67529;DHT22;54366;51.980;5.856;2023-03-14T12:09:02;9.20;60.80
67529;DHT22;54366;51.980;5.856;2023-03-14T12:11:44;9.20;60.00
67529;DHT22;54366;51.980;5.856;2023-03-14T12:17:03;9.30;59.30
67529;DHT22;54366;51.980;5.856;2023-03-14T12:19:41;9.30;56.30
67529;DHT22;54366;51.980;5.856;2023-03-14T12:22:28;9.30;55.60
67529;DHT22;54366;51.980;5.856;2023-03-14T12:25:18;9.20;54.50
67529;DHT22;54366;51.980;5.856;2023-03-14T12:30:38;9.30;52.70
67529;DHT22;54366;51.980;5.856;2023-03-14T12:33:29;9.30;53.80
67529;DHT22;54366;51.980;5.856;2023-03-14T12:36:05;9.50;50.90
67529;DHT22;54366;51.980;5.856;2023-03-14T12:41:52;9.70;47.90
67529;DHT22;54366;51.980;5.856;2023-03-14T12:44:42;9.70;48.50
67529;DHT22;54366;51.980;5.856;2023-03-14T12:47:43;9.80;48.00
67529;DHT22;54366;51.980;5.856;2023-03-14T12:50:25;9.90;49.80
67529;DHT22;54366;51.980;5.856;2023-03-14T12:56:35;9.80;46.50
67529;DHT22;54366;51.980;5.856;2023-03-14T12:59:57;9.70;48.60
67529;DHT22;54366;51.980;5.856;2023-03-14T13:02:42;9.60;52.30
67529;DHT22;54366;51.980;5.856;2023-03-14T13:05:25;9.70;48.30
67529;DHT22;54366;51.980;5.856;2023-03-14T13:08:04;9.70;48.20
67529;DHT22;54366;51.980;5.856;2023-03-14T13:10:45;9.70;48.80
67529;DHT22;54366;51.980;5.856;2023-03-14T13:13:22;9.60;48.60
67529;DHT22;54366;51.980;5.856;2023-03-14T13:15:57;9.60;47.80
67529;DHT22;54366;51.980;5.856;2023-03-14T13:18:47;9.60;48.50
67529;DHT22;54366;51.980;5.856;2023-03-14T13:21:22;9.60;46.90
67529;DHT22;54366;51.980;5.856;2023-03-14T13:24:07;9.60;45.80
67529;DHT22;54366;51.980;5.856;2023-03-14T13:26:55;9.50;49.10
67529;DHT22;54366;51.980;5.856;2023-03-14T13:29:30;9.50;48.10
67529;DHT22;54366;51.980;5.856;2023-03-14T13:32:39;9.50;47.50
67529;DHT22;54366;51.980;5.856;2023-03-14T13:35:25;9.50;48.20
67529;DHT22;54366;51.980;5.856;2023-03-14T13:38:00;9.50;46.90
67529;DHT22;54366;51.980;5.856;2023-03-14T13:40:34;9.40;46.00
67529;DHT22;54366;51.980;5.856;2023-03-14T13:43:18;9.40;47.40
67529;DHT22;54366;51.980;5.856;2023-03-14T13:46:12;9.50;46.60
67529;DHT22;54366;51.980;5.856;2023-03-14T13:48:51;9.40;45.70
67529;DHT22;54366;51.980;5.856;2023-03-14T13:51:25;9.40;43.70
67529;DHT22;54366;51.980;5.856;2023-03-14T13:54:01;9.40;45.10
67529;DHT22;54366;51.980;5.856;2023-03-14T13:56:35;9.40;44.50
67529;DHT22;54366;51.980;5.856;2023-03-14T13:59:23;9.40;44.70
67529;DHT22;54366;51.980;5.856;2023-03-14T14:01:57;9.40;46.70
67529;DHT22;54366;51.980;5.856;2023-03-14T14:04:33;9.50;48.20
67529;DHT22;54366;51.980;5.856;2023-03-14T14:07:10;9.70;45.70
67529;DHT22;54366;51.980;5.856;2023-03-14T14:09:50;9.70;44.70
67529;DHT22;54366;51.980;5.856;2023-03-14T14:12:37;9.60;44.30
67529;DHT22;54366;51.980;5.856;2023-03-14T14:15:18;9.60;44.20
67529;DHT22;54366;51.980;5.856;2023-03-14T14:18:12;9.50;44.00
67529;DHT22;54366;51.980;5.856;2023-03-14T14:20:47;9.50;46.00
67529;DHT22;54366;51.980;5.856;2023-03-14T14:23:22;9.60;46.80
67529;DHT22;54366;51.980;5.856;2023-03-14T14:26:01;9.60;46.30
67529;DHT22;54366;51.980;5.856;2023-03-14T14:28:37;9.70;46.50
67529;DHT22;54366;51.980;5.856;2023-03-14T14:31:23;9.70;45.00
67529;DHT22;54366;51.980;5.856;2023-03-14T14:34:01;9.70;41.60
67529;DHT22;54366;51.980;5.856;2023-03-14T14:36:42;9.60;43.70
67529;DHT22;54366;51.980;5.856;2023-03-14T14:39:25;9.40;43.00
67529;DHT22;54366;51.980;5.856;2023-03-14T14:41:59;9.20;40.60
67529;DHT22;54366;51.980;5.856;2023-03-14T14:44:33;9.10;39.90
67529;DHT22;54366;51.980;5.856;2023-03-14T14:47:13;9.00;40.90
67529;DHT22;54366;51.980;5.856;2023-03-14T14:49:49;8.90;42.50
67529;DHT22;54366;51.980;5.856;2023-03-14T14:52:43;8.90;42.00
67529;DHT22;54366;51.980;5.856;2023-03-14T14:55:18;8.90;42.00
67529;DHT22;54366;51.980;5.856;2023-03-14T14:57:53;8.90;43.50
67529;DHT22;54366;51.980;5.856;2023-03-14T15:00:27;8.90;43.60
67529;DHT22;54366;51.980;5.856;2023-03-14T15:03:00;8.80;41.70
67529;DHT22;54366;51.980;5.856;2023-03-14T15:05:33;8.80;40.10
67529;DHT22;54366;51.980;5.856;2023-03-14T15:08:11;8.80;41.00
67529;DHT22;54366;51.980;5.856;2023-03-14T15:10:44;8.70;42.70
67529;DHT22;54366;51.980;5.856;2023-03-14T15:13:17;8.60;43.10
67529;DHT22;54366;51.980;5.856;2023-03-14T15:15:51;8.60;42.50
67529;DHT22;54366;51.980;5.856;2023-03-14T15:18:29;8.60;44.00
67529;DHT22;54366;51.980;5.856;2023-03-14T15:21:02;8.60;45.70
67529;DHT22;54366;51.980;5.856;2023-03-14T15:23:29;8.60;44.40
67529;DHT22;54366;51.980;5.856;2023-03-14T15:26:01;8.70;44.40
67529;DHT22;54366;51.980;5.856;2023-03-14T15:28:35;8.70;43.90
67529;DHT22;54366;51.980;5.856;2023-03-14T15:31:10;8.70;45.80
67529;DHT22;54366;51.980;5.856;2023-03-14T15:33:44;8.80;46.30
67529;DHT22;54366;51.980;5.856;2023-03-14T15:36:26;8.80;44.50
67529;DHT22;54366;51.980;5.856;2023-03-14T15:39:00;8.80;44.60
67529;DHT22;54366;51.980;5.856;2023-03-14T15:41:32;8.60;45.70
67529;DHT22;54366;51.980;5.856;2023-03-14T15:44:05;8.60;46.10
67529;DHT22;54366;51.980;5.856;2023-03-14T15:46:38;8.50;47.10
67529;DHT22;54366;51.980;5.856;2023-03-14T15:49:04;8.40;47.50
67529;DHT22;54366;51.980;5.856;2023-03-14T15:51:37;8.50;48.70
67529;DHT22;54366;51.980;5.856;2023-03-14T15:54:10;8.50;46.70
67529;DHT22;54366;51.980;5.856;2023-03-14T15:56:49;8.50;47.80
67529;DHT22;54366;51.980;5.856;2023-03-14T15:59:29;8.40;48.60
67529;DHT22;54366;51.980;5.856;2023-03-14T16:02:02;8.40;48.40
67529;DHT22;54366;51.980;5.856;2023-03-14T16:04:35;8.40;47.90
67529;DHT22;54366;51.980;5.856;2023-03-14T16:07:08;8.40;48.40
67529;DHT22;54366;51.980;5.856;2023-03-14T16:09:35;8.40;47.90
67529;DHT22;54366;51.980;5.856;2023-03-14T16:12:08;8.30;48.00
67529;DHT22;54366;51.980;5.856;2023-03-14T16:14:41;8.30;47.90
67529;DHT22;54366;51.980;5.856;2023-03-14T16:17:15;8.30;48.60
67529;DHT22;54366;51.980;5.856;2023-03-14T16:19:48;8.20;48.60
67529;DHT22;54366;51.980;5.856;2023-03-14T16:22:21;8.30;47.10
67529;DHT22;54366;51.980;5.856;2023-03-14T16:24:47;8.20;47.20
67529;DHT22;54366;51.980;5.856;2023-03-14T16:27:20;8.10;47.50
67529;DHT22;54366;51.980;5.856;2023-03-14T16:29:53;8.10;47.10
67529;DHT22;54366;51.980;5.856;2023-03-14T16:32:26;8.10;47.00
67529;DHT22;54366;51.980;5.856;2023-03-14T16:34:59;8.10;46.10
67529;DHT22;54366;51.980;5.856;2023-03-14T16:37:32;8.10;47.60
67529;DHT22;54366;51.980;5.856;2023-03-14T16:40:06;8.00;47.60
67529;DHT22;54366;51.980;5.856;2023-03-14T16:42:33;8.00;48.50
67529;DHT22;54366;51.980;5.856;2023-03-14T16:45:07;8.00;47.70
67529;DHT22;54366;51.980;5.856;2023-03-14T16:47:40;8.00;47.20
67529;DHT22;54366;51.980;5.856;2023-03-14T16:50:13;7.90;46.80
67529;DHT22;54366;51.980;5.856;2023-03-14T16:52:46;7.90;46.50
67529;DHT22;54366;51.980;5.856;2023-03-14T16:55:21;7.90;46.50
67529;DHT22;54366;51.980;5.856;2023-03-14T16:57:47;7.80;46.10
67529;DHT22;54366;51.980;5.856;2023-03-14T17:00:21;7.80;47.70
67529;DHT22;54366;51.980;5.856;2023-03-14T17:02:53;7.80;47.30
67529;DHT22;54366;51.980;5.856;2023-03-14T17:05:26;7.80;47.10
67529;DHT22;54366;51.980;5.856;2023-03-14T17:07:52;7.90;47.70
67529;DHT22;54366;51.980;5.856;2023-03-14T17:10:25;7.90;48.50
67529;DHT22;54366;51.980;5.856;2023-03-14T17:12:52;7.90;49.20
67529;DHT22;54366;51.980;5.856;2023-03-14T17:15:24;7.80;48.40
67529;DHT22;54366;51.980;5.856;2023-03-14T17:17:57;7.90;48.80
67529;DHT22;54366;51.980;5.856;2023-03-14T17:20:23;7.90;50.50
67529;DHT22;54366;51.980;5.856;2023-03-14T17:22:56;7.90;49.20
67529;DHT22;54366;51.980;5.856;2023-03-14T17:25:29;7.90;49.20